Terminal Aerodrome Forecast
Issued by NWS

Home | Current Version | Previous Version | Text Only | Print | Product List | Glossary On
Versions: 1 2 3 4 5 6 7 8 9 10 11 12 13 14 15 16 17 18
924
FTUS41 KCAR 211720
TAFPQI
TAF
KPQI 211720Z 2118/2218 29005KT P6SM OVC016
     FM212300 VRB03KT P6SM BKN020
     FM221100 34005KT P6SM BKN025
     FM221500 36008KT P6SM BKN015=

USA.gov is the U.S. government's official web portal to all federal, state and local government web resources and services.